Pagrindinis puslapis
METAR-TAF:

METAR-TAF

Oro uostai :

Lycksele, Švedija

platuma: 64-32-51N, ilguma: 018-43-03E, Aukštis: 211 m

Dabartinis oras

Ataskaita buvo paskelbta 43 minutes, ne 01:20 UTC
Vėjas 10 kt iš Pietryčių
Temperatūra 6°C
Drėgmė 93%
Slėgis 998 hPa
Matomumas 10 km arba daugiau
dulksna

METAR: ESNL 230120Z AUTO 13010KT 9999 DZ OVC018/// 06/05 Q0998

Laikas: 04:03 (02:03 UTC)


TAF: trūkstamas

Orai ataskaitas ir orų prognozės (METAR, TAF).

turimą stotys yra geltonos ir raudonos taškus žemėlapyje.

Perkelti pele per norėdami pamatyti stoties vardą.

Tada spustelėkite, norėdami matyti oro stebėjimo ir prognozės.

Norėdami pakeisti žemėlapį: spustelėkite ant žalios mygtukų su juodo kryžiaus žemyn,; žalią mygtuką su brūkšneliu, jei norite nutolinti; arba žalių rodyklių gretimoms žemėlapius.


METAR-TAF: